createdAt,value
2022-09-28T00:00:41.322Z,82.83
2022-09-28T00:01:41.385Z,84.20
2022-09-28T00:02:41.253Z,83.59
2022-09-28T00:03:41.143Z,83.69
2022-09-28T00:04:41.212Z,83.80
2022-09-28T00:05:41.103Z,83.59
2022-09-28T00:06:41.283Z,82.97
2022-09-28T00:07:41.102Z,83.59
2022-09-28T00:08:41.172Z,83.59
2022-09-28T00:09:40.344Z,84.61
2022-09-28T00:10:41.203Z,85.33
2022-09-28T00:11:41.175Z,82.97
2022-09-28T00:12:40.305Z,83.55
2022-09-28T00:13:41.762Z,83.65
2022-09-28T00:14:41.124Z,83.65
2022-09-28T00:15:41.063Z,82.53
2022-09-28T00:16:40.979Z,83.04
2022-09-28T00:17:41.052Z,83.25
2022-09-28T00:18:40.893Z,82.90
2022-09-28T00:19:41.224Z,81.87
2022-09-28T00:20:40.884Z,81.81
2022-09-28T00:21:41.054Z,83.45
2022-09-28T00:22:41.023Z,82.12
2022-09-28T00:23:41.943Z,82.93
2022-09-28T00:24:40.243Z,83.39
2022-09-28T00:25:41.033Z,84.20
2022-09-28T00:26:40.163Z,84.82
2022-09-28T00:27:40.963Z,84.10
2022-09-28T00:28:40.934Z,85.33
2022-09-28T00:29:40.911Z,84.41
2022-09-28T00:30:41.003Z,84.10
2022-09-28T00:44:26.423Z,84.03
2022-09-28T00:45:25.555Z,83.51
2022-09-28T00:46:25.487Z,84.23
2022-09-28T00:47:25.359Z,83.61
2022-09-28T00:48:25.237Z,83.51
2022-09-28T00:49:25.378Z,83.47
2022-09-28T00:50:25.189Z,83.68
2022-09-28T00:51:25.337Z,83.51
2022-09-28T00:52:25.266Z,83.78
2022-09-28T00:53:25.336Z,83.82
2022-09-28T00:54:25.327Z,83.72
2022-09-28T00:55:25.318Z,83.92
2022-09-28T00:56:47.127Z,83.61
2022-09-28T00:57:25.351Z,83.00
2022-09-28T00:58:47.137Z,83.10
2022-09-28T00:59:25.286Z,82.90
2022-09-28T01:00:47.116Z,82.90
2022-09-28T01:01:25.364Z,83.00
2022-09-28T01:02:47.618Z,83.25
2022-09-28T01:03:25.127Z,84.41
2022-09-28T01:04:46.868Z,85.89
2022-09-28T01:05:25.024Z,86.09
2022-09-28T01:06:46.408Z,86.19
2022-09-28T01:07:25.098Z,85.78
2022-09-28T01:08:46.837Z,85.58
2022-09-28T01:09:25.067Z,85.27
2022-09-28T01:10:46.718Z,85.06
2022-09-28T01:11:25.007Z,85.62
2022-09-28T01:12:47.469Z,86.13
2022-09-28T01:13:25.064Z,86.95
2022-09-28T01:14:46.258Z,86.95
2022-09-28T01:15:25.049Z,87.20
2022-09-28T01:16:47.001Z,87.30
2022-09-28T01:17:25.077Z,87.51
2022-09-28T01:18:47.388Z,87.61
2022-09-28T01:19:25.058Z,87.30
2022-09-28T01:20:46.817Z,86.95
2022-09-28T01:21:25.078Z,86.95
2022-09-28T01:22:47.250Z,87.46
2022-09-28T01:23:25.030Z,86.75
2022-09-28T01:24:46.717Z,86.85
2022-09-28T01:25:25.013Z,86.65
2022-09-28T01:26:46.569Z,86.68
2022-09-28T01:27:25.068Z,87.10
2022-09-28T01:28:47.467Z,87.30
2022-09-28T01:29:25.119Z,87.71
2022-09-28T01:30:46.229Z,88.27
2022-09-28T01:31:24.972Z,88.72
2022-09-28T01:32:24.936Z,89.54
2022-09-28T01:33:46.530Z,89.85
2022-09-28T01:34:24.858Z,90.06
2022-09-28T01:35:46.638Z,90.26
2022-09-28T01:36:24.907Z,90.16
2022-09-28T07:30:36.492Z,51.66
2022-09-28T07:31:29.900Z,52.57
2022-09-28T07:32:29.100Z,51.38
2022-09-28T07:33:28.890Z,53.50
2022-09-28T07:34:29.899Z,52.84
2022-09-28T07:35:29.350Z,51.21
2022-09-28T07:36:28.301Z,52.06
2022-09-28T07:37:29.041Z,50.73
2022-09-28T07:38:29.020Z,50.43
2022-09-28T07:39:29.312Z,51.09
2022-09-28T07:40:29.058Z,50.84
2022-09-28T07:41:29.310Z,51.01
2022-09-28T07:42:29.041Z,50.06
2022-09-28T07:43:28.868Z,46.70
2022-09-28T07:44:29.560Z,48.43
2022-09-28T07:45:29.135Z,48.63
2022-09-28T07:46:28.170Z,47.23
2022-09-28T07:47:34.708Z,48.61
2022-09-28T07:48:28.911Z,46.83
2022-09-28T07:49:28.922Z,46.93
2022-09-28T07:50:29.620Z,45.53
2022-09-28T07:51:28.151Z,46.25
2022-09-28T07:52:28.089Z,45.88
2022-09-28T07:53:30.002Z,43.62
2022-09-28T07:54:28.874Z,45.34
2022-09-28T07:55:28.980Z,45.22
2022-09-28T07:56:28.819Z,44.54
2022-09-28T07:57:28.970Z,42.99
2022-09-28T07:58:28.550Z,42.38
2022-09-28T07:59:29.020Z,42.33
2022-09-28T08:00:33.222Z,41.77
2022-09-28T08:01:28.927Z,40.64
2022-09-28T08:02:28.036Z,39.86
2022-09-28T08:03:29.781Z,39.52
2022-09-28T08:04:29.531Z,40.22
2022-09-28T08:05:28.630Z,44.68
2022-09-28T08:06:28.793Z,44.08
2022-09-28T08:07:29.480Z,44.59
2022-09-28T08:08:28.151Z,44.91
2022-09-28T08:09:27.902Z,45.33
2022-09-28T08:10:28.754Z,46.33
2022-09-28T08:11:29.120Z,49.27
2022-09-28T08:12:28.890Z,49.57
2022-09-28T08:13:28.751Z,49.97
2022-09-28T08:14:29.681Z,49.79
2022-09-28T08:15:28.643Z,49.79
2022-09-28T08:16:28.735Z,50.02
2022-09-28T08:17:28.879Z,51.00
2022-09-28T08:18:29.630Z,50.95
2022-09-28T08:19:28.670Z,51.96
2022-09-28T08:20:27.990Z,52.11
2022-09-28T08:21:27.753Z,52.01
2022-09-28T08:22:27.865Z,51.98
2022-09-28T08:23:29.450Z,52.14
2022-09-28T08:24:28.490Z,52.51
2022-09-28T08:25:28.621Z,51.71
2022-09-28T08:26:28.502Z,52.34
2022-09-28T08:27:27.691Z,52.94
2022-09-28T08:28:28.610Z,52.19
2022-09-28T08:29:27.680Z,50.85
2022-09-28T08:30:28.375Z,50.95
2022-09-28T08:31:28.512Z,51.33
2022-09-28T08:32:29.292Z,50.10
2022-09-28T08:33:28.327Z,50.52
2022-09-28T08:34:28.571Z,49.37
2022-09-28T08:35:27.872Z,49.73
2022-09-28T08:36:27.590Z,47.39
2022-09-28T08:37:28.270Z,47.22
2022-09-28T08:38:28.401Z,44.42
2022-09-28T08:39:29.090Z,42.80
2022-09-28T08:40:28.133Z,43.40
2022-09-28T08:41:28.211Z,43.44
2022-09-28T08:42:27.561Z,45.61
2022-09-28T08:43:27.552Z,46.34
2022-09-28T08:44:28.482Z,45.63
2022-09-28T08:45:27.682Z,47.97
2022-09-28T08:46:29.062Z,47.86
2022-09-28T08:47:28.739Z,48.49
2022-09-28T08:48:29.081Z,49.42
2022-09-28T08:49:28.752Z,50.15
2022-09-28T08:50:28.743Z,50.57
2022-09-28T08:51:29.150Z,51.10
2022-09-28T08:52:28.140Z,50.78
2022-09-28T08:53:28.560Z,50.98
2022-09-28T08:54:30.180Z,51.13
2022-09-28T08:55:28.602Z,52.67
2022-09-28T08:56:28.510Z,51.93
2022-09-28T08:57:27.636Z,51.93
2022-09-28T08:58:27.371Z,50.90
2022-09-28T08:59:27.380Z,51.45
2022-09-28T09:00:28.130Z,51.45
2022-09-28T09:01:28.895Z,51.76
2022-09-28T09:02:28.203Z,52.56
2022-09-28T09:03:27.960Z,51.96
2022-09-28T09:04:28.090Z,52.47
2022-09-28T09:05:27.302Z,52.64
2022-09-28T09:06:28.380Z,52.11
2022-09-28T09:07:29.551Z,51.66
2022-09-28T09:08:28.651Z,50.76
2022-09-28T09:09:28.904Z,51.28
2022-09-28T09:10:29.202Z,50.85
2022-09-28T09:11:27.283Z,50.02
2022-09-28T09:12:28.250Z,50.25
2022-09-28T09:13:27.951Z,49.80
2022-09-28T09:14:28.300Z,49.37
2022-09-28T09:15:28.241Z,50.18
2022-09-28T09:16:27.229Z,49.27
2022-09-28T09:17:28.850Z,48.57
2022-09-28T09:18:28.171Z,49.95
2022-09-28T09:19:28.026Z,49.18
2022-09-28T09:20:28.672Z,48.87
2022-09-28T09:21:28.081Z,49.40
2022-09-28T09:22:27.921Z,50.31
2022-09-28T09:23:27.120Z,49.93
2022-09-28T09:24:28.501Z,51.03
2022-09-28T09:25:27.080Z,49.18
2022-09-28T09:26:29.090Z,48.95
2022-09-28T09:27:28.721Z,48.35
2022-09-28T09:28:27.814Z,49.18
2022-09-28T09:29:27.982Z,48.77
2022-09-28T09:30:30.469Z,48.27
2022-09-28T09:31:27.037Z,48.52
2022-09-28T09:32:27.062Z,46.81
2022-09-28T09:33:27.391Z,45.10
2022-09-28T09:34:27.811Z,45.65
2022-09-28T09:35:30.534Z,46.17
2022-09-28T09:36:26.971Z,46.67
2022-09-28T09:37:27.030Z,47.47
2022-09-28T09:38:28.732Z,47.47
2022-09-28T09:39:28.611Z,48.18
2022-09-28T09:40:26.966Z,47.75
2022-09-28T09:41:28.515Z,46.42
2022-09-28T09:42:27.670Z,47.80
2022-09-28T09:43:30.886Z,47.70
2022-09-28T09:44:26.871Z,48.13
2022-09-28T09:45:27.141Z,48.18
2022-09-28T09:46:27.879Z,48.18
2022-09-28T09:47:26.874Z,47.13
2022-09-28T09:48:27.574Z,46.73
2022-09-28T09:49:27.691Z,45.75
2022-09-28T09:50:27.032Z,46.72
2022-09-28T09:51:27.890Z,46.57
2022-09-28T09:52:26.873Z,46.89
2022-09-28T09:53:27.653Z,46.17
2022-09-28T09:54:28.231Z,46.89
2022-09-28T09:55:30.135Z,47.27
2022-09-28T09:56:28.540Z,47.09
2022-09-28T09:57:27.630Z,47.94
2022-09-28T09:58:26.790Z,48.17
2022-09-28T09:59:26.820Z,49.77
2022-09-28T10:00:28.512Z,49.07
2022-09-28T10:01:27.520Z,48.44
2022-09-28T10:02:28.259Z,49.07
2022-09-28T10:03:27.602Z,48.87
2022-09-28T10:04:27.660Z,49.02
2022-09-28T10:05:26.680Z,48.43
2022-09-28T10:06:27.583Z,48.25
2022-09-28T10:07:28.234Z,49.35
2022-09-28T10:08:27.271Z,49.15
2022-09-28T10:09:26.670Z,49.13
2022-09-28T10:10:27.519Z,49.07
2022-09-28T10:11:26.952Z,50.89
2022-09-28T10:12:27.390Z,49.85
2022-09-28T10:13:27.080Z,48.47
2022-09-28T10:14:28.840Z,49.02
2022-09-28T10:15:27.340Z,48.80
2022-09-28T10:16:26.595Z,47.05
2022-09-28T10:17:27.690Z,46.23
2022-09-28T10:18:27.950Z,47.07
2022-09-28T10:19:26.550Z,48.65
2022-09-28T10:20:27.141Z,49.90
2022-09-28T10:21:27.311Z,50.40
2022-09-28T10:22:27.022Z,51.21
2022-09-28T10:23:28.481Z,51.56
2022-09-28T10:24:27.449Z,51.73
2022-09-28T10:25:28.662Z,50.10
2022-09-28T10:26:28.161Z,48.47
2022-09-28T10:27:26.540Z,48.83
2022-09-28T10:28:27.431Z,49.40
2022-09-28T10:29:26.494Z,48.88
2022-09-28T10:30:27.505Z,46.85
2022-09-28T10:31:27.231Z,46.38
2022-09-28T10:32:27.494Z,44.76
2022-09-28T10:33:27.060Z,44.26
2022-09-28T10:34:27.601Z,44.66
2022-09-28T10:35:27.520Z,46.16
2022-09-28T10:36:26.351Z,45.72
2022-09-28T10:37:26.992Z,47.55
2022-09-28T10:38:26.701Z,46.95
2022-09-28T10:39:28.164Z,47.85
2022-09-28T10:40:27.597Z,46.85
2022-09-28T10:41:27.061Z,47.65
2022-09-28T10:42:27.242Z,48.83
2022-09-28T10:43:27.091Z,50.33
2022-09-28T10:44:26.241Z,50.03
2022-09-28T10:45:28.919Z,51.14
2022-09-28T10:46:27.086Z,50.03
2022-09-28T10:47:26.952Z,50.91
2022-09-28T10:48:26.809Z,49.91
2022-09-28T10:49:27.037Z,47.97
2022-09-28T10:50:26.478Z,48.72
2022-09-28T10:51:26.979Z,50.66
2022-09-28T10:52:27.759Z,50.96
2022-09-28T10:53:26.161Z,49.57
2022-09-28T10:54:27.602Z,49.95
2022-09-28T10:55:26.982Z,49.48
2022-09-28T10:56:27.128Z,50.78
2022-09-28T10:57:27.252Z,51.61
2022-09-28T10:58:26.870Z,52.11
2022-09-28T10:59:26.979Z,52.11
2022-09-28T11:00:27.870Z,51.68
2022-09-28T11:01:27.297Z,52.57
2022-09-28T11:02:26.936Z,51.74
2022-09-28T11:03:27.890Z,50.84
2022-09-28T11:04:26.350Z,51.31
2022-09-28T11:05:26.741Z,51.86
2022-09-28T11:06:26.000Z,53.37
2022-09-28T11:07:27.598Z,51.79
2022-09-28T11:08:27.350Z,52.97
2022-09-28T11:09:29.933Z,52.87
2022-09-28T11:10:27.848Z,51.89
2022-09-28T11:11:26.660Z,53.09
2022-09-28T11:12:28.147Z,53.85
2022-09-28T11:13:26.648Z,51.64
2022-09-28T11:14:27.108Z,51.44
2022-09-28T11:15:26.688Z,50.56
2022-09-28T11:16:27.145Z,52.04
2022-09-28T11:17:26.631Z,50.96
2022-09-28T11:18:26.807Z,52.04
2022-09-28T11:19:26.629Z,53.42
2022-09-28T11:20:28.329Z,51.11
2022-09-28T11:21:57.009Z,52.14
2022-09-28T11:22:57.600Z,51.56
2022-09-28T11:24:57.547Z,52.26
2022-09-28T11:25:57.698Z,53.67
2022-09-28T11:26:57.790Z,53.65
2022-09-28T11:27:57.656Z,52.49
2022-09-28T11:28:57.547Z,49.68
2022-09-28T11:29:57.935Z,50.11
2022-09-28T11:30:57.673Z,50.01
2022-09-28T11:31:57.896Z,49.71
2022-09-28T11:32:57.527Z,50.91
2022-09-28T11:33:57.725Z,50.53
2022-09-28T11:35:00.201Z,50.73
2022-09-28T11:35:57.671Z,50.84
2022-09-28T11:37:01.579Z,52.22
2022-09-28T11:37:57.678Z,49.98
2022-09-28T11:38:57.576Z,50.09
2022-09-28T11:39:57.948Z,50.18
2022-09-28T11:40:58.093Z,50.48
2022-09-28T11:41:57.629Z,50.11
2022-09-28T11:42:57.660Z,50.93
2022-09-28T11:43:57.396Z,50.26
2022-09-28T11:44:57.536Z,51.86
2022-09-28T11:45:57.510Z,52.94
2022-09-28T11:46:57.566Z,52.55
2022-09-28T11:47:57.368Z,51.34
2022-09-28T11:48:56.724Z,51.24
2022-09-28T11:49:57.388Z,52.94
2022-09-28T11:50:57.815Z,51.31
2022-09-28T11:51:57.429Z,51.34
2022-09-28T11:52:57.505Z,52.14
2022-09-28T11:53:56.636Z,51.21
2022-09-28T11:54:57.605Z,50.84
2022-09-28T11:55:57.427Z,50.71
2022-09-28T11:56:57.486Z,51.01
2022-09-28T11:57:57.365Z,50.61
2022-09-28T11:58:57.276Z,49.80
2022-09-28T11:59:57.368Z,51.31
2022-09-28T12:00:57.317Z,52.19
2022-09-28T12:01:58.206Z,50.09
2022-09-28T12:02:57.368Z,51.81
2022-09-28T12:03:57.379Z,50.23
2022-09-28T12:04:57.227Z,52.42
2022-09-28T12:05:57.315Z,52.39
2022-09-28T12:06:57.289Z,50.61
2022-09-28T12:07:57.516Z,50.61
2022-09-28T12:08:57.759Z,52.62
2022-09-28T12:09:57.352Z,53.62
2022-09-28T12:10:57.181Z,53.52
2022-09-28T12:11:57.350Z,52.04
2022-09-28T12:12:57.287Z,51.04
2022-09-28T12:13:57.037Z,52.55
2022-09-28T12:14:57.275Z,51.97
2022-09-28T12:16:26.647Z,52.09
2022-09-28T12:17:07.622Z,52.82
2022-09-28T12:17:57.428Z,51.89
2022-09-28T12:18:57.386Z,51.79
2022-09-28T12:19:57.075Z,51.49
2022-09-28T12:20:59.659Z,51.89
2022-09-28T12:21:57.040Z,52.69
2022-09-28T12:22:57.306Z,52.47
2022-09-28T12:23:56.336Z,51.76
2022-09-28T12:24:57.118Z,53.05
2022-09-28T12:25:57.366Z,52.32
2022-09-28T12:26:57.166Z,51.69
2022-09-28T12:27:57.038Z,49.78
2022-09-28T12:28:57.025Z,49.48
2022-09-28T12:29:57.046Z,49.88
2022-09-28T12:30:57.092Z,50.26
2022-09-28T12:31:57.056Z,49.05
2022-09-28T12:32:57.208Z,48.35
2022-09-28T12:33:57.035Z,47.85
2022-09-28T12:34:57.496Z,48.55
2022-09-28T12:35:57.126Z,47.58
2022-09-28T12:36:57.066Z,47.50
2022-09-28T12:37:57.126Z,48.48
2022-09-28T12:39:17.593Z,48.28
2022-09-28T12:39:58.446Z,48.40
2022-09-28T12:40:56.966Z,48.20
2022-09-28T12:41:56.946Z,48.90
2022-09-28T12:42:57.157Z,48.78
2022-09-28T12:43:56.748Z,48.18
2022-09-28T12:44:59.433Z,47.55
2022-09-28T12:46:11.434Z,48.25
2022-09-28T12:46:56.942Z,47.96
2022-09-28T12:47:56.757Z,47.96
2022-09-28T12:49:43.656Z,49.84
2022-09-28T12:50:58.411Z,47.83
2022-09-28T12:51:56.756Z,46.62
2022-09-28T12:53:00.693Z,48.53
2022-09-28T12:53:56.886Z,48.73
2022-09-28T12:54:56.947Z,47.93
2022-09-28T12:55:56.767Z,47.96
2022-09-28T12:56:57.376Z,48.58
2022-09-28T12:57:56.696Z,46.37
2022-09-28T12:58:56.946Z,47.67
2022-09-28T12:59:56.838Z,46.77
2022-09-28T13:00:57.356Z,47.30
2022-09-28T13:01:57.044Z,48.72
2022-09-28T13:02:56.844Z,48.90
2022-09-28T13:03:56.788Z,49.80
2022-09-28T13:04:56.575Z,49.08
2022-09-28T13:05:56.687Z,50.46
2022-09-28T13:06:56.796Z,48.43
2022-09-28T13:07:56.892Z,47.93
2022-09-28T13:08:56.947Z,47.73
2022-09-28T13:09:56.715Z,48.13
2022-09-28T13:10:56.707Z,48.33
2022-09-28T13:11:56.698Z,48.23
2022-09-28T13:12:56.557Z,48.83
2022-09-28T13:13:56.465Z,50.13
2022-09-28T13:14:56.538Z,48.23
2022-09-28T13:15:56.418Z,50.54
2022-09-28T13:17:00.473Z,48.33
2022-09-28T13:17:56.702Z,46.73
2022-09-28T13:18:56.517Z,49.63
2022-09-28T13:19:56.411Z,49.04
2022-09-28T13:20:57.075Z,49.36
2022-09-28T13:25:58.735Z,49.71
2022-09-28T13:26:58.975Z,50.03
2022-09-28T13:27:59.224Z,49.93
2022-09-28T13:29:00.734Z,50.35
2022-09-28T13:30:00.810Z,51.06
2022-09-28T13:32:33.364Z,51.34
2022-09-28T13:33:29.815Z,51.44
2022-09-28T13:34:29.816Z,53.62
2022-09-28T13:35:30.716Z,50.21
2022-09-28T13:36:30.787Z,49.91
2022-09-28T13:37:53.216Z,50.61
2022-09-28T13:42:28.335Z,50.51
2022-09-28T13:43:29.585Z,49.51
2022-09-28T13:49:56.225Z,48.88
2022-09-28T13:52:33.615Z,48.98
2022-09-28T13:53:30.582Z,49.40
2022-09-28T13:54:28.152Z,49.21
2022-09-28T13:55:28.172Z,51.99
2022-09-28T13:56:28.095Z,52.69
2022-09-28T13:57:28.303Z,51.29
2022-09-28T13:58:28.276Z,50.61
2022-09-28T13:59:28.044Z,50.41
2022-09-28T14:00:28.153Z,48.40
2022-09-28T14:01:28.287Z,49.91
2022-09-28T14:02:28.237Z,51.51
2022-09-28T14:03:28.313Z,49.93
2022-09-28T14:04:28.292Z,50.43
2022-09-28T14:05:27.911Z,51.64
2022-09-28T14:06:28.473Z,50.03
2022-09-28T14:08:28.519Z,49.43
2022-09-28T14:09:27.933Z,51.94
2022-09-28T14:10:28.012Z,51.16
2022-09-28T14:11:28.052Z,51.76
2022-09-28T14:12:28.134Z,53.17
2022-09-28T14:13:28.143Z,51.66
2022-09-28T14:14:28.004Z,53.88
2022-09-28T14:15:28.118Z,53.47
2022-09-28T14:16:27.904Z,52.17
2022-09-28T14:17:28.134Z,54.38
2022-09-28T14:18:27.832Z,55.58
2022-09-28T14:19:28.002Z,50.56
2022-09-28T14:20:28.987Z,51.68
2022-09-28T14:23:03.144Z,53.09
2022-09-28T14:23:59.883Z,50.20
2022-09-28T14:24:58.855Z,53.63
2022-09-28T14:25:59.415Z,51.31
2022-09-28T14:26:58.974Z,51.11
2022-09-28T14:27:59.632Z,51.34
2022-09-28T14:28:58.553Z,51.84
2022-09-28T14:29:58.435Z,54.46
2022-09-28T14:30:58.526Z,55.87
2022-09-28T14:31:58.305Z,54.33
2022-09-28T14:32:58.803Z,56.95
2022-09-28T14:33:58.401Z,54.73
2022-09-28T14:35:00.513Z,53.32
2022-09-28T14:35:59.591Z,52.92
2022-09-28T14:36:59.717Z,52.01
2022-09-28T14:37:58.508Z,53.32
2022-09-28T14:38:58.427Z,53.05
2022-09-28T14:39:58.546Z,54.15
2022-09-28T14:40:59.752Z,55.66
2022-09-28T14:43:01.340Z,54.15
2022-09-28T14:44:01.200Z,53.34
2022-09-28T14:45:05.407Z,54.86
2022-09-28T14:46:01.286Z,53.45
2022-09-28T14:47:01.349Z,55.66
2022-09-28T14:48:01.329Z,53.75
2022-09-28T14:49:01.748Z,55.26
2022-09-28T14:50:01.291Z,54.75
2022-09-28T14:51:01.228Z,56.70
2022-09-28T14:52:01.250Z,54.79
2022-09-28T14:53:01.069Z,52.01
2022-09-28T14:56:40.148Z,54.03
2022-09-28T14:57:42.161Z,54.73
2022-09-28T14:59:42.387Z,54.83
2022-09-28T15:00:43.433Z,55.44
2022-09-28T15:01:42.313Z,54.43
2022-09-28T15:02:42.133Z,54.73
2022-09-28T15:03:42.047Z,54.76
2022-09-28T15:04:42.567Z,54.86
2022-09-28T15:05:42.180Z,54.05
2022-09-28T15:06:42.992Z,54.79
2022-09-28T15:07:42.333Z,55.09
2022-09-28T15:08:41.835Z,55.29
2022-09-28T15:09:42.123Z,56.60
2022-09-28T15:10:42.234Z,56.10
2022-09-28T15:11:43.094Z,56.20
2022-09-28T15:12:43.173Z,56.30
2022-09-28T15:13:42.383Z,57.51
2022-09-28T15:14:42.152Z,57.01
2022-09-28T15:15:42.266Z,57.01
2022-09-28T15:16:42.212Z,55.90
2022-09-28T15:17:42.402Z,56.20
2022-09-28T15:18:41.892Z,57.51
2022-09-28T15:19:41.993Z,56.83
2022-09-28T15:20:41.972Z,57.03
2022-09-28T15:21:42.083Z,57.23
2022-09-28T15:22:41.894Z,57.23
2022-09-28T15:23:41.985Z,57.84
2022-09-28T15:24:41.943Z,57.87
2022-09-28T15:25:43.285Z,57.76
2022-09-28T15:26:41.862Z,58.27
2022-09-28T15:27:41.972Z,58.78
2022-09-28T15:28:41.772Z,58.98
2022-09-28T15:29:42.104Z,57.97
2022-09-28T15:30:41.894Z,57.36
2022-09-28T15:31:41.964Z,57.36
2022-09-28T15:32:41.843Z,56.76
2022-09-28T15:33:41.663Z,57.56
2022-09-28T15:34:42.023Z,57.56
2022-09-28T15:35:42.003Z,57.76
2022-09-28T15:36:42.163Z,59.18
2022-09-28T15:37:42.223Z,58.17
2022-09-28T15:38:42.193Z,57.97
2022-09-28T15:39:41.813Z,58.75
2022-09-28T15:40:41.828Z,60.97
2022-09-28T15:41:42.064Z,58.75
2022-09-28T15:42:41.774Z,59.25
2022-09-28T15:43:42.831Z,60.77
2022-09-28T15:44:42.372Z,61.47
2022-09-28T15:45:43.143Z,62.18
2022-09-28T15:46:43.106Z,62.18
2022-09-28T15:47:41.785Z,63.09
2022-09-28T15:48:43.575Z,59.56
2022-09-28T15:49:42.296Z,59.25
2022-09-28T15:50:41.534Z,60.29
2022-09-28T15:51:41.943Z,61.80
2022-09-28T15:52:42.729Z,61.40
2022-09-28T15:53:41.711Z,61.51
2022-09-28T15:54:41.688Z,60.29
2022-09-28T15:55:41.709Z,60.89
2022-09-28T15:56:41.548Z,59.89
2022-09-28T15:57:43.168Z,60.29
2022-09-28T15:58:41.758Z,61.23
2022-09-28T15:59:43.718Z,61.63
2022-09-28T16:00:42.500Z,61.63
2022-09-28T16:01:42.034Z,61.63
2022-09-28T16:02:41.687Z,61.73
2022-09-28T16:03:41.646Z,61.94
2022-09-28T16:04:41.527Z,62.57
2022-09-28T16:05:42.568Z,63.08
2022-09-28T16:06:41.547Z,63.99
2022-09-28T16:07:41.381Z,64.19
2022-09-28T16:08:41.589Z,64.09
2022-09-28T16:09:41.385Z,65.91
2022-09-28T16:10:41.507Z,65.50
2022-09-28T16:11:44.247Z,64.79
2022-09-28T16:12:41.560Z,65.81
2022-09-28T16:13:41.359Z,63.99
2022-09-28T16:14:41.546Z,66.31
2022-09-28T16:15:41.470Z,66.72
2022-09-28T16:16:46.253Z,66.61
2022-09-28T16:17:41.407Z,66.01
2022-09-28T16:18:41.436Z,65.10
2022-09-28T16:19:41.590Z,65.70
2022-09-28T16:20:41.258Z,66.52
2022-09-28T16:21:41.348Z,66.11
2022-09-28T16:22:41.289Z,65.20
2022-09-28T16:23:41.519Z,65.00
2022-09-28T16:24:41.467Z,67.02
2022-09-28T16:25:41.809Z,68.13
2022-09-28T16:26:41.407Z,65.81
2022-09-28T16:27:41.428Z,65.91
2022-09-28T16:28:41.287Z,66.61
2022-09-28T16:29:41.468Z,66.55
2022-09-28T16:30:42.255Z,67.46
2022-09-28T16:31:41.436Z,68.19
2022-09-28T16:32:41.337Z,69.01
2022-09-28T16:33:41.449Z,69.85
2022-09-28T16:34:41.248Z,70.45
2022-09-28T16:35:41.117Z,69.95
2022-09-28T16:36:42.191Z,70.18
2022-09-28T16:37:41.730Z,70.59
2022-09-28T16:39:11.623Z,70.49
2022-09-28T16:40:12.456Z,71.40
2022-09-28T16:41:12.557Z,71.40
2022-09-28T16:42:11.617Z,71.50
2022-09-28T16:43:12.249Z,70.89
2022-09-28T16:44:11.859Z,71.20
2022-09-28T16:45:13.428Z,71.00
2022-09-28T16:46:12.513Z,71.30
2022-09-28T16:47:12.297Z,71.00
2022-09-28T16:48:12.863Z,71.40
2022-09-28T16:49:12.382Z,72.52
2022-09-28T16:50:12.316Z,72.75
2022-09-28T16:51:12.627Z,74.37
2022-09-28T16:52:11.554Z,74.17
2022-09-28T16:53:11.838Z,75.28
2022-09-28T16:54:12.186Z,75.99
2022-09-28T16:55:35.887Z,75.79
2022-09-28T16:56:12.906Z,76.80
2022-09-28T16:57:12.337Z,76.40
2022-09-28T16:58:11.827Z,76.23
2022-09-28T16:59:13.897Z,76.27
2022-09-28T17:00:11.436Z,76.17
2022-09-28T17:01:12.786Z,76.17
2022-09-28T17:02:24.853Z,77.12
2022-09-28T17:03:13.089Z,76.00
2022-09-28T17:04:13.077Z,77.01
2022-09-28T17:05:12.467Z,77.25
2022-09-28T17:06:12.257Z,77.66
2022-09-28T17:07:12.557Z,79.28
2022-09-28T17:08:12.146Z,78.47
2022-09-28T17:09:11.861Z,77.86
2022-09-28T17:10:12.467Z,78.67
2022-09-28T17:11:17.011Z,78.37
2022-09-28T17:12:12.427Z,79.59
2022-09-28T17:13:12.996Z,78.67
2022-09-28T17:14:11.417Z,78.47
2022-09-28T17:15:13.458Z,78.47
2022-09-28T17:16:13.244Z,78.44
2022-09-28T17:17:16.849Z,78.64
2022-09-28T17:18:12.047Z,78.64
2022-09-28T17:19:12.002Z,77.52
2022-09-28T17:20:11.268Z,76.81
2022-09-28T17:21:11.956Z,77.22
2022-09-28T17:22:11.166Z,77.01
2022-09-28T17:23:12.577Z,77.83
2022-09-28T17:24:11.813Z,77.45
2022-09-28T17:25:13.316Z,77.76
2022-09-28T17:26:11.867Z,78.06
2022-09-28T17:27:11.968Z,78.98
2022-09-28T17:28:13.357Z,78.27
2022-09-28T17:29:11.936Z,79.38
2022-09-28T17:30:11.765Z,78.51
2022-09-28T17:31:11.919Z,78.10
2022-09-28T17:32:11.945Z,78.51
2022-09-28T17:33:11.966Z,78.10
2022-09-28T17:34:11.862Z,78.61
2022-09-28T17:35:24.244Z,78.41
2022-09-28T17:36:11.804Z,77.70
2022-09-28T17:37:11.815Z,77.70
2022-09-28T17:38:11.935Z,77.59
2022-09-28T17:39:11.566Z,77.90
2022-09-28T17:40:11.835Z,78.00
2022-09-28T17:41:11.595Z,77.59
2022-09-28T17:42:11.765Z,77.83
2022-09-28T17:43:11.623Z,77.53
2022-09-28T17:44:11.849Z,77.43
2022-09-28T17:45:11.615Z,77.33
2022-09-28T17:46:11.928Z,77.43
2022-09-28T17:47:11.575Z,76.78
2022-09-28T17:48:12.777Z,76.28
2022-09-28T17:49:11.705Z,76.28
2022-09-28T17:50:12.035Z,75.76
2022-09-28T17:51:11.640Z,75.76
2022-09-28T17:52:11.866Z,75.46
2022-09-28T17:53:11.695Z,75.46
2022-09-28T17:54:11.445Z,74.85
2022-09-28T17:55:11.795Z,75.67
2022-09-28T17:56:11.515Z,76.17
2022-09-28T17:57:11.605Z,76.28
2022-09-28T17:58:11.575Z,76.37
2022-09-28T17:59:11.715Z,76.48
2022-09-28T18:00:12.416Z,76.58
2022-09-28T18:01:11.689Z,76.88
2022-09-28T18:02:11.736Z,77.19
2022-09-28T18:03:11.545Z,77.09
2022-09-28T18:04:22.944Z,77.09
2022-09-28T18:05:11.616Z,77.19
2022-09-28T18:06:11.525Z,77.09
2022-09-28T18:07:11.816Z,76.88
2022-09-28T18:08:11.806Z,77.49
2022-09-28T18:09:11.226Z,78.10
2022-09-28T18:10:11.635Z,78.30
2022-09-28T18:11:11.425Z,78.51
2022-09-28T18:12:11.545Z,78.91
2022-09-28T18:13:11.277Z,79.22
2022-09-28T18:14:11.570Z,80.33
2022-09-28T18:15:11.295Z,80.33
2022-09-28T18:16:11.672Z,80.24
2022-09-28T18:17:11.286Z,81.15
2022-09-28T18:18:11.426Z,80.03
2022-09-28T18:19:11.665Z,80.94
2022-09-28T18:20:11.447Z,79.72
2022-09-28T18:21:11.435Z,80.84
2022-09-28T18:22:11.326Z,80.13
2022-09-28T18:23:11.277Z,80.54
2022-09-28T18:24:11.551Z,79.72
2022-09-28T18:25:11.387Z,80.24
2022-09-28T18:26:11.186Z,80.94
2022-09-28T18:27:11.315Z,81.05
2022-09-28T18:28:11.505Z,81.15
2022-09-28T18:29:11.287Z,80.33
2022-09-28T18:30:11.186Z,80.84
2022-09-28T18:31:11.680Z,80.44
2022-09-28T18:32:11.525Z,80.33
2022-09-28T18:33:10.487Z,79.86
2022-09-28T18:34:11.282Z,80.07
2022-09-28T18:35:11.230Z,79.46
2022-09-28T18:36:11.085Z,79.46
2022-09-28T18:37:11.315Z,79.36
2022-09-28T18:38:11.145Z,78.71
2022-09-28T18:39:11.356Z,79.77
2022-09-28T18:40:11.247Z,80.17
2022-09-28T18:41:10.915Z,79.77
2022-09-28T18:42:11.146Z,80.17
2022-09-28T18:43:11.525Z,79.63
2022-09-28T18:44:11.105Z,80.44
2022-09-28T18:45:11.075Z,79.36
2022-09-28T18:46:11.294Z,80.33
2022-09-28T18:47:11.286Z,79.05
2022-09-28T18:48:11.467Z,79.86
2022-09-28T18:49:11.015Z,80.78
2022-09-28T18:50:11.085Z,82.45
2022-09-28T18:51:11.016Z,83.87
2022-09-28T18:52:11.025Z,83.15
2022-09-28T18:53:10.975Z,82.95
2022-09-28T18:54:10.887Z,83.46
2022-09-28T18:55:10.974Z,83.60
2022-09-28T18:56:10.827Z,83.81
2022-09-28T18:57:11.285Z,84.11
2022-09-28T18:58:11.306Z,84.31
2022-09-28T18:59:12.452Z,84.66
2022-09-28T19:00:10.883Z,85.98
2022-09-28T19:01:29.452Z,86.80
2022-09-28T19:02:11.113Z,87.20
2022-09-28T19:03:11.131Z,84.82
2022-09-28T19:04:10.845Z,85.23
2022-09-28T19:05:11.094Z,85.37
2022-09-28T19:06:10.825Z,84.66
2022-09-28T19:07:11.195Z,85.88
2022-09-28T19:08:10.846Z,85.88
2022-09-28T19:09:10.657Z,87.00
2022-09-28T19:10:10.789Z,86.49
2022-09-28T19:11:10.726Z,86.19
2022-09-28T19:12:11.047Z,85.78
2022-09-28T19:13:10.662Z,85.47
2022-09-28T19:14:10.797Z,85.78
2022-09-28T19:15:10.646Z,85.17
2022-09-28T19:16:10.967Z,85.88
2022-09-28T19:17:10.626Z,85.78
2022-09-28T19:18:11.126Z,86.19
2022-09-28T19:19:10.707Z,85.17
2022-09-28T19:20:10.735Z,85.06
2022-09-28T19:21:10.836Z,84.76
2022-09-28T19:22:10.704Z,85.41
2022-09-28T19:23:10.625Z,86.33
2022-09-28T19:24:10.445Z,86.08
2022-09-28T19:25:10.725Z,86.08